Time;durP1;ratioP1;P1;durP2;ratioP2;P2;SDS_P1;SDS_P2;PMS_P1;PMS_P2;Temp;Humidity;BMP_temperature;BMP_pressure;BME280_temperature;BME280_humidity;BME280_pressure;Samples;Min_cycle;Max_cycle;Signal;HPM_P1;HPM_P2
2021/04/04 00:00:50;;;;;;;2.13;1.10;;;;;;;;;;5040149;28;20051;-77
2021/04/04 00:03:16;;;;;;;3.60;1.20;;;;;;;;;;5056805;28;20025;-78
2021/04/04 00:05:41;;;;;;;2.77;1.10;;;;;;;;;;5030925;28;20053;-78
2021/04/04 00:08:07;;;;;;;2.10;1.00;;;;;;;;;;5037170;28;20021;-78
2021/04/04 00:10:32;;;;;;;1.63;1.00;;;;;;;;;;5036928;28;20078;-78
2021/04/04 00:12:58;;;;;;;1.67;1.00;;;;;;;;;;5036355;28;20105;-78
2021/04/04 00:15:23;;;;;;;2.47;1.37;;;;;;;;;;5004685;28;20017;-78
2021/04/04 00:17:48;;;;;;;2.87;1.30;;;;;;;;;;5019987;28;20036;-78
2021/04/04 00:20:15;;;;;;;2.93;1.13;;;;;;;;;;5020601;28;20107;-78
2021/04/04 00:22:41;;;;;;;3.20;1.00;;;;;;;;;;5020042;28;20017;-78
2021/04/04 00:25:07;;;;;;;2.80;1.27;;;;;;;;;;5031570;28;20044;-78
2021/04/04 00:27:32;;;;;;;3.08;1.25;;;;;;;;;;5019900;28;20082;-77
2021/04/04 00:29:58;;;;;;;2.63;1.10;;;;;;;;;;5014830;28;20060;-78
2021/04/04 00:32:23;;;;;;;2.80;1.20;;;;;;;;;;5036263;28;20432;-78
2021/04/04 00:34:49;;;;;;;2.20;1.10;;;;;;;;;;5035974;28;20083;-78
2021/04/04 00:37:14;;;;;;;2.53;1.07;;;;;;;;;;5019945;28;20064;-77
2021/04/04 00:39:40;;;;;;;2.57;1.17;;;;;;;;;;5065013;28;20116;-78
2021/04/04 00:42:05;;;;;;;2.97;1.33;;;;;;;;;;5056090;28;20062;-78
2021/04/04 00:44:30;;;;;;;3.10;1.10;;;;;;;;;;5035252;28;20135;-78
2021/04/04 00:46:55;;;;;;;3.90;1.30;;;;;;;;;;5036438;28;20048;-78
2021/04/04 00:49:21;;;;;;;2.87;1.30;;;;;;;;;;5062552;28;20475;-78
2021/04/04 00:51:46;;;;;;;2.10;1.00;;;;;;;;;;5055857;28;20458;-78
2021/04/04 00:54:12;;;;;;;2.47;1.10;;;;;;;;;;5035698;28;20025;-78
2021/04/04 00:56:37;;;;;;;2.67;1.23;;;;;;;;;;5019476;28;20111;-78
2021/04/04 00:59:02;;;;;;;3.30;1.30;;;;;;;;;;5005218;28;20039;-78
2021/04/04 01:01:28;;;;;;;3.50;1.40;;;;;;;;;;5036108;28;20029;-78
2021/04/04 01:03:53;;;;;;;2.53;1.10;;;;;;;;;;5022038;28;20044;-78
2021/04/04 01:06:19;;;;;;;3.00;1.23;;;;;;;;;;5039417;28;20032;-78
2021/04/04 01:08:44;;;;;;;2.57;1.10;;;;;;;;;;5022083;28;20029;-78
2021/04/04 01:11:09;;;;;;;3.30;1.40;;;;;;;;;;5033573;28;20551;-77
2021/04/04 01:13:50;;;;;;;2.13;1.20;;;;;;;;;;5019849;28;20039;-78
2021/04/04 01:16:23;;;;;;;2.17;1.13;;;;;;;;;;5035676;28;20442;-78
2021/04/04 01:19:06;;;;;;;2.80;1.20;;;;;;;;;;5020916;28;20472;-77
2021/04/04 01:21:49;;;;;;;2.20;1.10;;;;;;;;;;5035361;28;20025;-78
2021/04/04 01:24:41;;;;;;;2.92;1.30;;;;;;;;;;5036848;28;20116;-78
2021/04/04 01:27:19;;;;;;;2.35;1.15;;;;;;;;;;5022223;28;20074;-78
2021/04/04 01:29:44;;;;;;;2.63;1.30;;;;;;;;;;5020376;28;20464;-78
2021/04/04 01:32:10;;;;;;;3.73;1.37;;;;;;;;;;5006569;28;20095;-78
2021/04/04 01:34:35;;;;;;;2.70;1.20;;;;;;;;;;5036951;28;20488;-78
2021/04/04 01:37:03;;;;;;;2.80;1.20;;;;;;;;;;5039104;28;20025;-78
2021/04/04 01:39:31;;;;;;;2.60;1.23;;;;;;;;;;5053758;28;20086;-77
2021/04/04 01:41:57;;;;;;;2.22;1.10;;;;;;;;;;5042032;28;20429;-78
2021/04/04 01:44:22;;;;;;;3.53;1.50;;;;;;;;;;5035661;28;20031;-77
2021/04/04 01:46:48;;;;;;;2.97;1.40;;;;;;;;;;5026153;28;20021;-78
2021/04/04 01:49:14;;;;;;;4.50;1.57;;;;;;;;;;5026178;28;20505;-78
2021/04/04 01:51:43;;;;;;;2.58;1.25;;;;;;;;;;5022746;28;20032;-77
2021/04/04 01:54:08;;;;;;;3.45;1.50;;;;;;;;;;5039678;28;20525;-77
2021/04/04 01:56:34;;;;;;;2.97;1.40;;;;;;;;;;5042467;28;20032;-77
2021/04/04 01:58:59;;;;;;;2.43;1.23;;;;;;;;;;5042674;28;20040;-78
2021/04/04 02:01:25;;;;;;;2.90;1.40;;;;;;;;;;5042646;28;20119;-78
2021/04/04 02:03:50;;;;;;;2.20;1.20;;;;;;;;;;5038887;28;20036;-78
2021/04/04 02:06:16;;;;;;;2.83;1.50;;;;;;;;;;5006548;28;20526;-78
2021/04/04 02:08:41;;;;;;;2.87;1.37;;;;;;;;;;5022627;28;20021;-78
2021/04/04 02:11:07;;;;;;;3.20;1.40;;;;;;;;;;5023991;28;20041;-78
2021/04/04 02:13:33;;;;;;;2.75;1.23;;;;;;;;;;5031590;28;20472;-78
2021/04/04 02:15:58;;;;;;;3.13;1.30;;;;;;;;;;5022121;28;20061;-78
2021/04/04 02:18:24;;;;;;;3.10;1.37;;;;;;;;;;5024659;28;20020;-78
2021/04/04 02:20:49;;;;;;;2.47;1.17;;;;;;;;;;5040022;28;20111;-77
2021/04/04 02:23:14;;;;;;;2.83;1.20;;;;;;;;;;5030370;28;20024;-77
2021/04/04 02:25:40;;;;;;;2.40;1.30;;;;;;;;;;5008346;28;20143;-78
2021/04/04 02:28:05;;;;;;;2.70;1.40;;;;;;;;;;5023148;28;20499;-78
2021/04/04 02:30:31;;;;;;;3.20;1.40;;;;;;;;;;5038485;28;20392;-78
2021/04/04 02:33:12;;;;;;;3.33;1.50;;;;;;;;;;5049279;28;20029;-78
2021/04/04 02:35:38;;;;;;;2.40;1.23;;;;;;;;;;5005893;28;20032;-78
2021/04/04 02:38:10;;;;;;;4.22;1.60;;;;;;;;;;5022152;28;20025;-77
2021/04/04 02:40:36;;;;;;;2.60;1.20;;;;;;;;;;5023551;28;20090;-78
2021/04/04 02:43:01;;;;;;;3.97;1.47;;;;;;;;;;5014754;28;20427;-78
2021/04/04 02:45:27;;;;;;;2.93;1.50;;;;;;;;;;5021861;28;20033;-78
2021/04/04 02:47:56;;;;;;;4.43;1.57;;;;;;;;;;5022083;28;20052;-78
2021/04/04 02:50:22;;;;;;;3.45;1.30;;;;;;;;;;5024695;28;20032;-78
2021/04/04 02:52:47;;;;;;;2.43;1.20;;;;;;;;;;5036130;28;20162;-78
2021/04/04 02:55:15;;;;;;;2.77;1.30;;;;;;;;;;5025536;28;20055;-78
2021/04/04 02:57:41;;;;;;;3.38;1.38;;;;;;;;;;5041604;28;20032;-77
2021/04/04 03:00:07;;;;;;;3.03;1.10;;;;;;;;;;5041048;28;20107;-77
2021/04/04 03:02:32;;;;;;;3.65;1.42;;;;;;;;;;5040512;28;20077;-77
2021/04/04 03:04:59;;;;;;;2.90;1.50;;;;;;;;;;5040969;28;20036;-77
2021/04/04 03:07:25;;;;;;;3.10;1.42;;;;;;;;;;5041159;28;20048;-78
2021/04/04 03:09:51;;;;;;;3.33;1.50;;;;;;;;;;5026391;28;20062;-78
2021/04/04 03:12:17;;;;;;;;;;;;;;;;;;5026186;28;20025;-78
2021/04/04 03:14:43;;;;;;;3.30;1.43;;;;;;;;;;5038026;28;19913;-78
2021/04/04 03:17:09;;;;;;;3.40;1.55;;;;;;;;;;5022572;28;20032;-78
2021/04/04 03:19:34;;;;;;;3.65;1.40;;;;;;;;;;5042894;28;20475;-78
2021/04/04 03:22:00;;;;;;;3.10;1.33;;;;;;;;;;5027505;28;20052;-77
2021/04/04 03:24:25;;;;;;;3.13;1.33;;;;;;;;;;5023852;28;20036;-78
2021/04/04 03:26:50;;;;;;;3.57;1.60;;;;;;;;;;5005558;28;20036;-79
2021/04/04 03:29:16;;;;;;;3.33;1.37;;;;;;;;;;5022178;28;20063;-78
2021/04/04 03:31:41;;;;;;;3.27;1.40;;;;;;;;;;5025070;28;20057;-78
2021/04/04 03:34:06;;;;;;;3.43;1.50;;;;;;;;;;5020733;28;20056;-78
2021/04/04 03:36:32;;;;;;;3.50;1.53;;;;;;;;;;5041662;28;20028;-78
2021/04/04 03:38:57;;;;;;;3.30;1.60;;;;;;;;;;5041853;28;20078;-78
2021/04/04 03:41:27;;;;;;;4.27;1.53;;;;;;;;;;5041718;28;20056;-78
2021/04/04 03:43:52;;;;;;;3.08;1.48;;;;;;;;;;5038389;28;20029;-78
2021/04/04 03:46:23;;;;;;;3.13;1.30;;;;;;;;;;5043027;28;20031;-78
2021/04/04 03:48:48;;;;;;;4.00;1.50;;;;;;;;;;5042251;28;20031;-78
2021/04/04 03:51:14;;;;;;;3.53;1.30;;;;;;;;;;5022280;28;20033;-78
2021/04/04 03:53:43;;;;;;;3.10;1.50;;;;;;;;;;5021638;28;20064;-78
2021/04/04 03:56:10;;;;;;;3.20;1.42;;;;;;;;;;5037872;28;20472;-78
2021/04/04 03:58:36;;;;;;;3.72;1.70;;;;;;;;;;5023213;28;20039;-78
2021/04/04 04:01:02;;;;;;;2.67;1.23;;;;;;;;;;5038374;28;20029;-78
2021/04/04 04:03:27;;;;;;;2.88;1.40;;;;;;;;;;5047308;28;20030;-78
2021/04/04 04:05:53;;;;;;;3.63;1.53;;;;;;;;;;5035156;23;20458;-75
2021/04/04 04:08:18;;;;;;;2.90;1.50;;;;;;;;;;5020590;28;20115;-76
2021/04/04 04:10:43;;;;;;;2.67;1.40;;;;;;;;;;5022406;28;20031;-76
2021/04/04 04:13:09;;;;;;;2.87;1.40;;;;;;;;;;5018362;28;20078;-76
2021/04/04 04:15:34;;;;;;;3.00;1.40;;;;;;;;;;5019098;28;20037;-76
2021/04/04 04:17:59;;;;;;;3.50;1.47;;;;;;;;;;5019308;28;20040;-76
2021/04/04 04:20:25;;;;;;;4.23;1.63;;;;;;;;;;5019082;28;20126;-76
2021/04/04 04:22:50;;;;;;;2.90;1.37;;;;;;;;;;5018792;28;20025;-76
2021/04/04 04:25:15;;;;;;;3.23;1.30;;;;;;;;;;5032429;28;20069;-76
2021/04/04 04:27:42;;;;;;;3.83;1.40;;;;;;;;;;5037694;28;20545;-76
2021/04/04 04:30:08;;;;;;;3.38;1.67;;;;;;;;;;5038793;28;20056;-76
2021/04/04 04:32:35;;;;;;;3.75;1.50;;;;;;;;;;5022305;28;20052;-76
2021/04/04 04:35:02;;;;;;;2.80;1.30;;;;;;;;;;5038333;28;20020;-76
2021/04/04 04:37:28;;;;;;;2.63;1.50;;;;;;;;;;5022134;28;20479;-76
2021/04/04 04:39:53;;;;;;;3.17;1.40;;;;;;;;;;5038630;28;20071;-76
2021/04/04 04:42:18;;;;;;;3.47;1.30;;;;;;;;;;5021590;28;20294;-75
2021/04/04 04:44:44;;;;;;;3.40;1.50;;;;;;;;;;5003806;28;20067;-76
2021/04/04 04:47:10;;;;;;;3.83;1.60;;;;;;;;;;5002370;28;20025;-76
2021/04/04 04:49:36;;;;;;;3.20;1.33;;;;;;;;;;5018752;28;20035;-76
2021/04/04 04:52:02;;;;;;;3.03;1.40;;;;;;;;;;5035135;28;20021;-75
2021/04/04 04:54:27;;;;;;;2.10;1.23;;;;;;;;;;5003471;28;20087;-76
2021/04/04 04:56:52;;;;;;;4.00;1.43;;;;;;;;;;5018719;28;20120;-76
2021/04/04 04:59:18;;;;;;;3.37;1.33;;;;;;;;;;5017970;28;20056;-76
2021/04/04 05:01:44;;;;;;;3.60;1.70;;;;;;;;;;5036778;28;20033;-76
2021/04/04 05:04:09;;;;;;;2.83;1.40;;;;;;;;;;5042618;28;20043;-76
2021/04/04 05:06:34;;;;;;;2.27;1.20;;;;;;;;;;5039182;28;20033;-76
2021/04/04 05:09:00;;;;;;;3.83;1.33;;;;;;;;;;5022523;28;20048;-75
2021/04/04 05:11:26;;;;;;;3.20;1.30;;;;;;;;;;5022541;28;20024;-75
2021/04/04 05:13:51;;;;;;;3.50;1.60;;;;;;;;;;5033404;28;20576;-76
2021/04/04 05:16:16;;;;;;;2.80;1.30;;;;;;;;;;5025622;28;20147;-76
2021/04/04 05:18:49;;;;;;;4.00;1.70;;;;;;;;;;5021779;28;20479;-76
2021/04/04 05:21:19;;;;;;;3.03;1.35;;;;;;;;;;5038686;28;20031;-76
2021/04/04 05:23:44;;;;;;;3.05;1.48;;;;;;;;;;5014808;28;20035;-76
2021/04/04 05:26:10;;;;;;;3.13;1.43;;;;;;;;;;5022060;28;20025;-76
2021/04/04 05:28:35;;;;;;;2.40;1.07;;;;;;;;;;5055479;28;20052;-76
2021/04/04 05:31:04;;;;;;;3.50;1.47;;;;;;;;;;5038613;28;20116;-76
2021/04/04 05:33:30;;;;;;;2.75;1.40;;;;;;;;;;5041523;28;20119;-76
2021/04/04 05:36:00;;;;;;;3.15;1.45;;;;;;;;;;5041408;28;20020;-75
2021/04/04 05:38:26;;;;;;;2.97;1.50;;;;;;;;;;5059031;28;20032;-76
2021/04/04 05:40:51;;;;;;;2.97;1.33;;;;;;;;;;5025217;28;20028;-75
2021/04/04 05:43:16;;;;;;;3.30;1.40;;;;;;;;;;5018813;28;20516;-76
2021/04/04 05:45:51;;;;;;;2.60;1.30;;;;;;;;;;5005410;28;20474;-75
2021/04/04 05:48:37;;;;;;;2.60;1.20;;;;;;;;;;5034989;28;20024;-75
2021/04/04 05:51:24;;;;;;;2.47;1.30;;;;;;;;;;5024348;28;20021;-76
2021/04/04 05:54:01;;;;;;;2.78;1.38;;;;;;;;;;5054634;28;20032;-75
2021/04/04 05:56:46;;;;;;;3.20;1.30;;;;;;;;;;5040446;28;20562;-75
2021/04/04 05:59:13;;;;;;;2.85;1.45;;;;;;;;;;5044069;28;20119;-76
2021/04/04 06:01:58;;;;;;;2.63;1.20;;;;;;;;;;5041355;28;20027;-75
2021/04/04 06:04:39;;;;;;;3.70;1.38;;;;;;;;;;5042270;28;20020;-76
2021/04/04 06:07:32;;;;;;;2.58;1.38;;;;;;;;;;5046604;28;20032;-76
2021/04/04 06:10:07;;;;;;;3.38;1.40;;;;;;;;;;5030823;28;20029;-77
2021/04/04 06:12:37;;;;;;;3.47;1.30;;;;;;;;;;5038845;28;20484;-76
2021/04/04 06:15:13;;;;;;;3.20;1.50;;;;;;;;;;5031782;28;20048;-76
2021/04/04 06:17:46;;;;;;;2.78;1.30;;;;;;;;;;5057608;28;20043;-76
2021/04/04 06:20:15;;;;;;;3.38;1.30;;;;;;;;;;5037809;28;20017;-76
2021/04/04 06:22:50;;;;;;;4.22;1.50;;;;;;;;;;5021494;28;20036;-76
2021/04/04 06:25:37;;;;;;;3.42;1.40;;;;;;;;;;5037291;28;20028;-76
2021/04/04 06:28:12;;;;;;;;;;;;;;;;;;5056268;28;20013;-76
2021/04/04 06:30:46;;;;;;;3.40;1.50;;;;;;;;;;5021116;28;19909;-77
2021/04/04 06:33:25;;;;;;;3.28;1.58;;;;;;;;;;5032885;28;20021;-76
2021/04/04 06:35:58;;;;;;;3.55;1.35;;;;;;;;;;5040389;28;20025;-76
2021/04/04 06:39:09;;;;;;;2.83;1.17;;;;;;;;;;5021323;28;20025;-76
2021/04/04 06:41:54;;;;;;;3.50;1.40;;;;;;;;;;5050660;28;20061;-76
2021/04/04 06:44:45;;;;;;;3.25;1.40;;;;;;;;;;5003447;28;20051;-76
2021/04/04 06:47:48;;;;;;;2.70;1.27;;;;;;;;;;5037895;28;20020;-75
2021/04/04 06:50:21;;;;;;;3.00;1.30;;;;;;;;;;5074646;28;20028;-76
2021/04/04 06:52:56;;;;;;;2.83;1.33;;;;;;;;;;5036652;28;20447;-76
2021/04/04 06:55:45;;;;;;;3.08;1.55;;;;;;;;;;5054576;28;20016;-76
2021/04/04 06:58:26;;;;;;;3.08;1.33;;;;;;;;;;5040605;28;20476;-76
2021/04/04 07:01:06;;;;;;;3.60;1.42;;;;;;;;;;5055763;28;20101;-76
2021/04/04 07:03:45;;;;;;;2.17;1.10;;;;;;;;;;5036685;28;20049;-76
2021/04/04 07:06:26;;;;;;;3.28;1.35;;;;;;;;;;5021809;28;20033;-76
2021/04/04 07:08:57;;;;;;;3.53;1.50;;;;;;;;;;5054752;28;20031;-76
2021/04/04 07:11:32;;;;;;;2.95;1.40;;;;;;;;;;5056406;28;20028;-76
2021/04/04 07:14:17;;;;;;;2.92;1.27;;;;;;;;;;5056806;28;20025;-76
2021/04/04 07:17:00;;;;;;;2.17;1.20;;;;;;;;;;5056791;28;20021;-75
2021/04/04 07:19:32;;;;;;;4.43;1.55;;;;;;;;;;5038955;28;20031;-75
2021/04/04 07:22:00;;;;;;;2.95;1.17;;;;;;;;;;5039427;28;20033;-75
2021/04/04 07:24:48;;;;;;;3.47;1.60;;;;;;;;;;5056329;28;20021;-75
2021/04/04 07:27:52;;;;;;;3.00;1.40;;;;;;;;;;5045907;28;20032;-76
2021/04/04 07:30:35;;;;;;;3.58;1.48;;;;;;;;;;5015403;28;20036;-76
2021/04/04 07:33:29;;;;;;;3.25;1.33;;;;;;;;;;5056043;28;20027;-76
2021/04/04 07:36:02;;;;;;;2.85;1.38;;;;;;;;;;5046830;28;20408;-76
2021/04/04 07:38:45;;;;;;;3.50;1.30;;;;;;;;;;5051818;28;20051;-76
2021/04/04 07:41:51;;;;;;;3.30;1.50;;;;;;;;;;5039271;28;20119;-76
2021/04/04 07:44:28;;;;;;;2.70;1.38;;;;;;;;;;5023421;28;20041;-76
2021/04/04 07:47:26;;;;;;;2.45;1.27;;;;;;;;;;5019068;28;20024;-74
2021/04/04 07:50:00;;;;;;;;;;;;;;;;;;4993520;28;20135;-75
2021/04/04 07:52:44;;;;;;;3.17;1.30;;;;;;;;;;5019658;28;19909;-76
2021/04/04 07:55:16;;;;;;;2.75;1.10;;;;;;;;;;5035773;28;20029;-76
2021/04/04 07:58:16;;;;;;;2.92;1.40;;;;;;;;;;5019900;28;20031;-76
2021/04/04 08:00:46;;;;;;;2.50;1.27;;;;;;;;;;5035710;28;20074;-77
2021/04/04 08:03:16;;;;;;;2.53;1.20;;;;;;;;;;5019573;28;20029;-77
2021/04/04 08:05:43;;;;;;;3.08;1.27;;;;;;;;;;5020740;28;20231;-76
2021/04/04 08:08:11;;;;;;;2.80;1.30;;;;;;;;;;5018879;28;20035;-76
2021/04/04 08:10:39;;;;;;;2.70;1.50;;;;;;;;;;5020985;28;20375;-76
2021/04/04 08:13:31;;;;;;;2.88;1.40;;;;;;;;;;5018366;28;20448;-75
2021/04/04 08:16:18;;;;;;;2.33;1.27;;;;;;;;;;5045115;28;20108;-75
2021/04/04 08:18:44;;;;;;;2.95;1.27;;;;;;;;;;5034260;28;20108;-75
2021/04/04 08:21:22;;;;;;;3.07;1.37;;;;;;;;;;5018563;28;20068;-75
2021/04/04 08:24:08;;;;;;;3.00;1.27;;;;;;;;;;5011498;28;20452;-74
2021/04/04 08:26:52;;;;;;;2.85;1.20;;;;;;;;;;5004932;28;20036;-75
2021/04/04 08:29:23;;;;;;;2.40;1.30;;;;;;;;;;5035107;28;20063;-75
2021/04/04 08:31:58;;;;;;;2.88;1.30;;;;;;;;;;5021961;28;20029;-75
2021/04/04 08:34:26;;;;;;;2.60;1.40;;;;;;;;;;5039387;28;20024;-74
2021/04/04 08:36:53;;;;;;;2.92;1.40;;;;;;;;;;5037271;28;20063;-75
2021/04/04 08:39:20;;;;;;;2.53;1.20;;;;;;;;;;5038213;28;20114;-75
2021/04/04 08:41:45;;;;;;;2.28;1.20;;;;;;;;;;5021875;28;20025;-74
2021/04/04 08:44:14;;;;;;;2.37;1.30;;;;;;;;;;5036392;28;20032;-75
2021/04/04 08:46:43;;;;;;;3.05;1.23;;;;;;;;;;5019341;28;20025;-75
2021/04/04 08:49:08;;;;;;;3.72;1.48;;;;;;;;;;5002612;28;20032;-75
2021/04/04 08:51:39;;;;;;;2.90;1.30;;;;;;;;;;5002067;28;20119;-76
2021/04/04 08:54:06;;;;;;;3.28;1.40;;;;;;;;;;5020985;28;20057;-75
2021/04/04 08:56:31;;;;;;;2.55;1.27;;;;;;;;;;5034815;28;20449;-75
2021/04/04 08:58:57;;;;;;;2.70;1.13;;;;;;;;;;5018497;28;20108;-76
2021/04/04 09:01:36;;;;;;;3.13;1.40;;;;;;;;;;5034980;28;20024;-76
2021/04/04 09:04:13;;;;;;;2.42;1.33;;;;;;;;;;5020416;28;20033;-75
2021/04/04 09:06:40;;;;;;;2.90;1.40;;;;;;;;;;5032474;28;20472;-77
2021/04/04 09:09:19;;;;;;;2.72;1.30;;;;;;;;;;5033660;28;20071;-76
2021/04/04 09:11:46;;;;;;;2.25;1.13;;;;;;;;;;5034867;28;20087;-76
2021/04/04 09:14:12;;;;;;;2.70;1.35;;;;;;;;;;5006700;28;20515;-77
2021/04/04 09:16:37;;;;;;;3.03;1.47;;;;;;;;;;5018991;28;20063;-79
2021/04/04 09:19:02;;;;;;;2.53;1.20;;;;;;;;;;5002409;28;20163;-76
2021/04/04 09:21:29;;;;;;;3.33;1.50;;;;;;;;;;5021220;28;20434;-76
2021/04/04 09:23:55;;;;;;;2.33;1.20;;;;;;;;;;5035046;28;20035;-76
2021/04/04 09:26:22;;;;;;;3.30;1.30;;;;;;;;;;5018580;28;20033;-76
2021/04/04 09:28:48;;;;;;;2.70;1.27;;;;;;;;;;5034671;28;20025;-76
2021/04/04 09:31:28;;;;;;;2.92;1.33;;;;;;;;;;5034688;28;20505;-76
2021/04/04 09:34:11;;;;;;;2.80;1.20;;;;;;;;;;5018190;28;20480;-76
2021/04/04 09:36:47;;;;;;;3.53;1.40;;;;;;;;;;5035025;28;20115;-76
2021/04/04 09:39:14;;;;;;;;;;;;;;;;;;5018918;28;20111;-76
2021/04/04 09:41:40;;;;;;;2.28;1.40;;;;;;;;;;5034472;28;19963;-76
2021/04/04 09:44:06;;;;;;;2.67;1.30;;;;;;;;;;5034740;28;20033;-76
2021/04/04 09:46:32;;;;;;;;;;;;;;;;;;5018405;28;20024;-76
2021/04/04 09:48:57;;;;;;;3.28;1.15;;;;;;;;;;5034682;28;19916;-77
2021/04/04 09:51:22;;;;;;;3.07;1.37;;;;;;;;;;5036303;28;20027;-76
2021/04/04 09:53:52;;;;;;;3.27;1.27;;;;;;;;;;5054786;28;20032;-76
2021/04/04 09:56:19;;;;;;;2.83;1.30;;;;;;;;;;5038114;28;20025;-76
2021/04/04 09:58:48;;;;;;;2.65;1.30;;;;;;;;;;5038127;28;20029;-77
2021/04/04 10:01:21;;;;;;;3.30;1.17;;;;;;;;;;5021449;28;20021;-77
2021/04/04 10:04:02;;;;;;;3.22;1.27;;;;;;;;;;5037866;28;20029;-76
2021/04/04 10:06:28;;;;;;;2.72;1.20;;;;;;;;;;5067797;23;20013;-77
2021/04/04 10:09:03;;;;;;;4.20;1.30;;;;;;;;;;5054807;28;20102;-77
2021/04/04 10:11:28;;;;;;;3.03;1.23;;;;;;;;;;5021607;28;20029;-77
2021/04/04 10:14:14;;;;;;;2.60;1.23;;;;;;;;;;5004971;28;20360;-77
2021/04/04 10:16:39;;;;;;;3.65;1.40;;;;;;;;;;5021459;28;20484;-77
2021/04/04 10:19:06;;;;;;;3.03;1.30;;;;;;;;;;5021312;28;20163;-77
2021/04/04 10:21:52;;;;;;;2.33;1.00;;;;;;;;;;5017751;28;20499;-77
2021/04/04 10:24:30;;;;;;;3.30;1.35;;;;;;;;;;5020749;28;20037;-77
2021/04/04 10:27:17;;;;;;;2.58;1.20;;;;;;;;;;5034285;28;20061;-77
2021/04/04 10:29:43;;;;;;;2.25;1.13;;;;;;;;;;5017829;28;20029;-77
2021/04/04 10:32:08;;;;;;;2.00;1.20;;;;;;;;;;5001225;28;20036;-77
2021/04/04 10:34:41;;;;;;;3.47;1.43;;;;;;;;;;5001290;28;20026;-77
2021/04/04 10:37:07;;;;;;;2.30;1.17;;;;;;;;;;5001302;28;20022;-77
2021/04/04 10:39:32;;;;;;;2.40;1.10;;;;;;;;;;5017842;28;20060;-77
2021/04/04 10:41:57;;;;;;;2.73;0.90;;;;;;;;;;5001330;28;20101;-77
2021/04/04 10:44:23;;;;;;;1.90;1.27;;;;;;;;;;5001160;28;20424;-76
2021/04/04 10:46:49;;;;;;;2.33;1.10;;;;;;;;;;5017379;28;20033;-77
2021/04/04 10:49:14;;;;;;;2.50;1.23;;;;;;;;;;5001602;28;20033;-77
2021/04/04 10:51:40;;;;;;;3.17;1.20;;;;;;;;;;5017860;28;20049;-77
2021/04/04 10:54:05;;;;;;;2.77;1.23;;;;;;;;;;5017383;28;20376;-77
2021/04/04 10:56:30;;;;;;;2.73;1.00;;;;;;;;;;5017280;28;20104;-77
2021/04/04 10:58:56;;;;;;;1.93;1.07;;;;;;;;;;5000810;28;20029;-77
2021/04/04 11:01:21;;;;;;;1.93;1.10;;;;;;;;;;5016889;28;20079;-77
2021/04/04 11:03:46;;;;;;;2.73;1.07;;;;;;;;;;5017251;28;20057;-77
2021/04/04 11:06:12;;;;;;;1.70;1.00;;;;;;;;;;5002907;28;20160;-77
2021/04/04 11:08:41;;;;;;;2.30;1.10;;;;;;;;;;5004154;28;20028;-77
2021/04/04 11:11:06;;;;;;;2.75;1.27;;;;;;;;;;5023588;28;20428;-77
2021/04/04 11:13:32;;;;;;;3.20;1.20;;;;;;;;;;5002545;28;20025;-78
2021/04/04 11:16:05;;;;;;;2.47;1.23;;;;;;;;;;5001464;28;20032;-77
2021/04/04 11:18:42;;;;;;;2.58;1.20;;;;;;;;;;5000926;28;20030;-77
2021/04/04 11:21:09;;;;;;;2.65;1.20;;;;;;;;;;5036756;28;20033;-77
2021/04/04 11:23:36;;;;;;;2.28;1.10;;;;;;;;;;5003289;28;20056;-77
2021/04/04 11:26:24;;;;;;;2.67;1.13;;;;;;;;;;4990348;28;20481;-77
2021/04/04 11:29:23;;;;;;;2.50;1.00;;;;;;;;;;5020076;28;20033;-77
2021/04/04 11:31:56;;;;;;;2.00;1.00;;;;;;;;;;5030677;28;20116;-77
2021/04/04 11:34:29;;;;;;;2.97;1.17;;;;;;;;;;5019737;28;20475;-77
2021/04/04 11:36:55;;;;;;;2.40;1.20;;;;;;;;;;5031129;28;20083;-77
2021/04/04 11:39:20;;;;;;;2.83;1.17;;;;;;;;;;5000175;28;20029;-77
2021/04/04 11:41:50;;;;;;;2.93;1.03;;;;;;;;;;5000189;28;20025;-77
2021/04/04 11:44:24;;;;;;;2.95;1.30;;;;;;;;;;5000553;28;20029;-77
2021/04/04 11:47:21;;;;;;;2.85;1.13;;;;;;;;;;5024506;28;20020;-77
2021/04/04 11:49:53;;;;;;;2.53;1.00;;;;;;;;;;5020026;28;20124;-77
2021/04/04 11:52:20;;;;;;;2.67;1.10;;;;;;;;;;5020490;28;20044;-77
2021/04/04 11:54:46;;;;;;;3.50;1.17;;;;;;;;;;5036043;28;20048;-77
2021/04/04 11:57:21;;;;;;;1.87;1.10;;;;;;;;;;5048154;28;20021;-77
2021/04/04 12:00:13;;;;;;;2.03;1.02;;;;;;;;;;5030401;28;20100;-77
2021/04/04 12:02:45;;;;;;;2.25;1.10;;;;;;;;;;5019390;28;20051;-77
2021/04/04 12:05:14;;;;;;;2.08;1.00;;;;;;;;;;5014712;28;20021;-77
2021/04/04 12:07:46;;;;;;;2.20;1.13;;;;;;;;;;4999953;28;20442;-77
2021/04/04 12:10:13;;;;;;;2.65;1.10;;;;;;;;;;5015870;28;20028;-77
2021/04/04 12:12:38;;;;;;;;;;;;;;;;;;5004819;28;20036;-77
2021/04/04 12:15:05;;;;;;;2.83;1.02;;;;;;;;;;5028042;28;19913;-77
2021/04/04 12:17:31;;;;;;;2.35;1.02;;;;;;;;;;4999731;28;20086;-77
2021/04/04 12:19:56;;;;;;;2.80;1.00;;;;;;;;;;5016077;28;20037;-77
2021/04/04 12:22:43;;;;;;;2.10;0.93;;;;;;;;;;4984585;28;20092;-77
2021/04/04 12:25:12;;;;;;;2.55;1.08;;;;;;;;;;5013819;28;20095;-77
2021/04/04 12:27:39;;;;;;;2.45;1.05;;;;;;;;;;5031438;28;20029;-77
2021/04/04 12:30:14;;;;;;;2.72;1.00;;;;;;;;;;4993505;28;20025;-77
2021/04/04 12:32:40;;;;;;;2.78;1.08;;;;;;;;;;5000640;28;20025;-77
2021/04/04 12:35:06;;;;;;;1.83;1.00;;;;;;;;;;5016818;28;20037;-77
2021/04/04 12:37:33;;;;;;;2.28;1.10;;;;;;;;;;5000308;28;20026;-77
2021/04/04 12:40:01;;;;;;;1.65;0.90;;;;;;;;;;5016839;28;20041;-77
2021/04/04 12:42:28;;;;;;;2.08;0.88;;;;;;;;;;5016541;28;20030;-77
2021/04/04 12:44:54;;;;;;;2.10;1.00;;;;;;;;;;5016292;28;20037;-77
2021/04/04 12:47:21;;;;;;;2.63;1.00;;;;;;;;;;5016460;28;20021;-77
2021/04/04 12:50:04;;;;;;;2.65;1.10;;;;;;;;;;5016253;28;20455;-77
2021/04/04 12:52:49;;;;;;;2.88;0.80;;;;;;;;;;5016739;28;20499;-77
2021/04/04 12:55:23;;;;;;;1.52;0.90;;;;;;;;;;5032688;28;20053;-77
2021/04/04 12:57:58;;;;;;;2.00;0.98;;;;;;;;;;5034128;28;20057;-78
2021/04/04 13:00:28;;;;;;;1.63;0.90;;;;;;;;;;5033082;28;20025;-77
2021/04/04 13:03:10;;;;;;;1.98;1.10;;;;;;;;;;5015872;28;20029;-77
2021/04/04 13:05:39;;;;;;;2.22;1.10;;;;;;;;;;4999999;28;20028;-77
2021/04/04 13:08:15;;;;;;;1.50;0.80;;;;;;;;;;5034552;28;20055;-78
2021/04/04 13:10:41;;;;;;;2.47;1.10;;;;;;;;;;5016438;28;20022;-78
2021/04/04 13:13:32;;;;;;;1.80;0.88;;;;;;;;;;5016936;28;20021;-78
2021/04/04 13:16:05;;;;;;;2.13;1.00;;;;;;;;;;5031966;28;20108;-78
2021/04/04 13:18:32;;;;;;;2.40;0.80;;;;;;;;;;5017119;28;20049;-78
2021/04/04 13:21:02;;;;;;;1.50;0.90;;;;;;;;;;5017038;28;20030;-78
2021/04/04 13:23:33;;;;;;;1.55;0.80;;;;;;;;;;5018025;28;20032;-78
2021/04/04 13:26:04;;;;;;;1.90;1.00;;;;;;;;;;5021034;28;20021;-77
2021/04/04 13:28:31;;;;;;;1.73;0.88;;;;;;;;;;5006837;28;20020;-77
2021/04/04 13:31:19;;;;;;;3.00;1.20;;;;;;;;;;5019229;28;20032;-77
2021/04/04 13:33:46;;;;;;;2.20;0.90;;;;;;;;;;5002396;28;20128;-77
2021/04/04 13:36:19;;;;;;;1.95;0.98;;;;;;;;;;5002712;28;20484;-77
2021/04/04 13:38:46;;;;;;;2.50;1.10;;;;;;;;;;5003423;28;20037;-77
2021/04/04 13:41:11;;;;;;;2.83;0.88;;;;;;;;;;5018890;28;20148;-77
2021/04/04 13:43:51;;;;;;;1.73;0.80;;;;;;;;;;4986031;28;20120;-77
2021/04/04 13:46:36;;;;;;;2.08;0.95;;;;;;;;;;5019260;28;20060;-77
2021/04/04 13:49:09;;;;;;;2.35;1.00;;;;;;;;;;5018809;28;20025;-77
2021/04/04 13:51:36;;;;;;;1.10;0.70;;;;;;;;;;5019014;28;20025;-77
2021/04/04 13:54:17;;;;;;;2.30;1.00;;;;;;;;;;5018636;28;20013;-77
2021/04/04 13:56:52;;;;;;;1.90;0.93;;;;;;;;;;5002081;28;20033;-77
2021/04/04 13:59:18;;;;;;;1.92;0.93;;;;;;;;;;5002081;28;20067;-77
2021/04/04 14:01:46;;;;;;;1.45;0.80;;;;;;;;;;5018765;28;20029;-77
2021/04/04 14:04:26;;;;;;;1.70;0.85;;;;;;;;;;5036078;28;20025;-77
2021/04/04 14:06:56;;;;;;;2.42;0.90;;;;;;;;;;5002648;28;20488;-77
2021/04/04 14:09:22;;;;;;;2.25;0.90;;;;;;;;;;5018394;28;20029;-77
2021/04/04 14:11:48;;;;;;;2.03;1.00;;;;;;;;;;5018123;28;20498;-77
2021/04/04 14:14:13;;;;;;;2.50;1.10;;;;;;;;;;5001968;28;20075;-77
2021/04/04 14:16:39;;;;;;;3.57;0.90;;;;;;;;;;5001959;28;20045;-77
2021/04/04 14:19:04;;;;;;;2.07;0.80;;;;;;;;;;5001871;28;20029;-77
2021/04/04 14:21:29;;;;;;;2.70;1.07;;;;;;;;;;5018049;28;20028;-77
2021/04/04 14:23:55;;;;;;;2.30;1.00;;;;;;;;;;5001659;28;20580;-77
2021/04/04 14:26:21;;;;;;;2.03;1.00;;;;;;;;;;5001812;28;20026;-77
2021/04/04 14:28:46;;;;;;;2.53;0.73;;;;;;;;;;5001594;28;20164;-77
2021/04/04 14:31:12;;;;;;;1.80;0.90;;;;;;;;;;5034518;28;20112;-77
2021/04/04 14:33:37;;;;;;;2.27;1.10;;;;;;;;;;4987800;28;20087;-77
2021/04/04 14:36:05;;;;;;;2.63;1.10;;;;;;;;;;5037453;28;20040;-77
2021/04/04 14:38:30;;;;;;;2.78;1.00;;;;;;;;;;5021380;28;20029;-77
2021/04/04 14:40:56;;;;;;;2.43;1.00;;;;;;;;;;5021086;28;20395;-77
2021/04/04 14:43:30;;;;;;;2.00;0.90;;;;;;;;;;5020946;28;20021;-77
2021/04/04 14:45:58;;;;;;;3.08;1.15;;;;;;;;;;5023771;28;20029;-77
2021/04/04 14:48:23;;;;;;;2.95;1.10;;;;;;;;;;5021146;28;20032;-77
2021/04/04 14:50:48;;;;;;;2.33;1.10;;;;;;;;;;5037849;28;20078;-77
2021/04/04 14:53:14;;;;;;;2.23;0.93;;;;;;;;;;5020796;28;20021;-77
2021/04/04 14:55:50;;;;;;;2.00;1.00;;;;;;;;;;5037562;28;20109;-77
2021/04/04 14:58:16;;;;;;;2.17;1.00;;;;;;;;;;5020851;28;20059;-77
2021/04/04 15:00:42;;;;;;;2.67;1.10;;;;;;;;;;5020433;28;20053;-77
2021/04/04 15:03:07;;;;;;;1.97;1.00;;;;;;;;;;5004214;28;20029;-77
2021/04/04 15:05:33;;;;;;;2.90;0.97;;;;;;;;;;5004036;28;20029;-76